Time;durP1;ratioP1;P1;durP2;ratioP2;P2;SDS_P1;SDS_P2;PMS_P1;PMS_P2;Temp;Humidity;BMP_temperature;BMP_pressure;BME280_temperature;BME280_humidity;BME280_pressure;Samples;Min_cycle;Max_cycle;Signal;HPM_P1;HPM_P2
2021/08/07 00:01:23;;;;;;;1999.90;999.90;;;19.10;99.90;;;;;;5036319;28;20511;-78
2021/08/07 00:03:49;;;;;;;1999.90;999.90;;;19.10;99.90;;;;;;5017892;28;20165;-78
2021/08/07 00:06:14;;;;;;;1999.90;999.90;;;19.10;99.90;;;;;;5035813;28;20503;-79
2021/08/07 00:08:40;;;;;;;1999.90;999.90;;;19.00;99.90;;;;;;5035698;28;20833;-78
2021/08/07 00:11:06;;;;;;;1999.90;999.90;;;19.00;99.90;;;;;;5017920;28;20409;-78
2021/08/07 00:13:31;;;;;;;1999.90;999.90;;;19.00;99.90;;;;;;5035465;28;20178;-78
2021/08/07 00:15:57;;;;;;;1999.90;999.90;;;19.00;99.90;;;;;;5035011;28;20170;-78
2021/08/07 00:18:23;;;;;;;1999.90;999.90;;;19.00;99.90;;;;;;5035118;28;20200;-78
2021/08/07 00:20:48;;;;;;;1999.90;999.90;;;19.00;99.90;;;;;;5035204;28;20240;-78
2021/08/07 00:23:14;;;;;;;1999.90;999.90;;;19.10;99.90;;;;;;5035362;28;20189;-78
2021/08/07 00:25:40;;;;;;;1999.90;999.90;;;19.10;99.90;;;;;;5034891;28;20158;-78
2021/08/07 00:28:06;;;;;;;1999.90;999.90;;;19.10;99.90;;;;;;5035022;28;20662;-78
2021/08/07 00:30:31;;;;;;;1999.90;999.90;;;19.10;99.90;;;;;;5017675;28;20207;-78
2021/08/07 00:32:57;;;;;;;1999.90;999.90;;;19.20;99.90;;;;;;5035193;28;20434;-78
2021/08/07 00:35:23;;;;;;;1999.90;999.90;;;19.10;99.90;;;;;;5034690;28;20199;-78
2021/08/07 00:37:48;;;;;;;1999.90;999.90;;;19.10;99.90;;;;;;5035160;28;20271;-78
2021/08/07 00:40:14;;;;;;;1999.90;999.90;;;19.10;99.90;;;;;;5034590;28;20169;-78
2021/08/07 00:42:41;;;;;;;1999.90;999.90;;;19.10;99.90;;;;;;5034681;28;20165;-78
2021/08/07 00:45:07;;;;;;;1999.90;999.90;;;19.00;99.90;;;;;;5035795;28;20896;-78
2021/08/07 00:47:33;;;;;;;1999.90;999.90;;;19.00;99.90;;;;;;5016865;28;20428;-78
2021/08/07 00:49:59;;;;;;;1999.90;999.90;;;19.00;99.90;;;;;;5035010;28;20400;-78
2021/08/07 00:52:25;;;;;;;1999.90;999.90;;;19.00;99.90;;;;;;5017624;28;20174;-78
2021/08/07 00:54:52;;;;;;;1999.90;999.90;;;18.90;99.90;;;;;;5034868;28;20649;-78
2021/08/07 00:57:18;;;;;;;1999.90;999.90;;;18.90;99.90;;;;;;5034819;28;20726;-78
2021/08/07 00:59:44;;;;;;;1999.90;999.90;;;18.80;99.90;;;;;;5035089;28;20396;-78
2021/08/07 01:02:13;;;;;;;1999.90;999.90;;;18.80;99.90;;;;;;5017409;28;20169;-78
2021/08/07 01:04:44;;;;;;;1999.90;999.90;;;18.80;99.90;;;;;;5017339;28;20656;-78
2021/08/07 01:07:30;;;;;;;1999.90;999.90;;;18.70;99.90;;;;;;5034736;28;20443;-78
2021/08/07 01:10:18;;;;;;;1999.90;999.90;;;18.70;99.90;;;;;;5016697;28;20814;-78
2021/08/07 01:13:15;;;;;;;1999.90;999.90;;;18.60;99.90;;;;;;5035405;28;20389;-78
2021/08/07 01:15:45;;;;;;;1999.90;999.90;;;18.50;99.90;;;;;;5017155;28;20400;-78
2021/08/07 01:18:14;;;;;;;1999.90;999.90;;;18.50;99.90;;;;;;5034628;28;20807;-78
2021/08/07 01:20:44;;;;;;;1999.90;999.90;;;18.40;99.90;;;;;;5017029;28;20408;-78
2021/08/07 01:23:22;;;;;;;1999.90;999.90;;;18.30;99.90;;;;;;5034561;28;20773;-78
2021/08/07 01:26:02;;;;;;;1999.90;999.90;;;18.40;99.90;;;;;;5016801;28;20422;-78
2021/08/07 01:28:33;;;;;;;1999.90;999.90;;;18.30;99.90;;;;;;5035427;28;20435;-78
2021/08/07 01:31:01;;;;;;;1999.90;999.90;;;18.30;99.90;;;;;;5035078;28;20503;-78
2021/08/07 01:33:27;;;;;;;1999.90;999.90;;;18.30;99.90;;;;;;5035386;28;20406;-78
2021/08/07 01:35:54;;;;;;;1999.90;999.90;;;18.30;99.90;;;;;;5034245;28;20428;-78
2021/08/07 01:38:20;;;;;;;1999.90;999.90;;;18.20;99.90;;;;;;5016874;28;20444;-78
2021/08/07 01:40:46;;;;;;;1999.90;999.90;;;18.10;99.90;;;;;;5016812;28;20411;-78
2021/08/07 01:43:11;;;;;;;1999.90;999.90;;;18.10;99.90;;;;;;5035236;28;20400;-78
2021/08/07 01:45:38;;;;;;;1999.90;999.90;;;18.10;99.90;;;;;;5034795;28;20165;-78
2021/08/07 01:48:35;;;;;;;1999.90;999.90;;;18.10;99.90;;;;;;5034485;28;20189;-78
2021/08/07 01:51:05;;;;;;;1999.90;999.90;;;18.10;99.90;;;;;;5017027;28;20423;-78
2021/08/07 01:53:34;;;;;;;1999.90;999.90;;;18.00;99.90;;;;;;5037973;28;20400;-78
2021/08/07 01:56:11;;;;;;;1999.90;999.90;;;18.00;99.90;;;;;;5038285;28;20410;-78
2021/08/07 01:58:49;;;;;;;1999.90;999.90;;;18.10;99.90;;;;;;5020267;28;20455;-78
2021/08/07 02:01:23;;;;;;;1999.90;999.90;;;18.00;99.90;;;;;;5020205;28;20495;-78
2021/08/07 02:03:50;;;;;;;1999.90;999.90;;;18.00;99.90;;;;;;5038446;28;20446;-78
2021/08/07 02:06:15;;;;;;;1999.90;999.90;;;18.00;99.90;;;;;;5037925;28;20423;-78
2021/08/07 02:08:42;;;;;;;1999.90;999.90;;;18.00;99.90;;;;;;5019902;28;20419;-78
2021/08/07 02:11:08;;;;;;;1999.90;999.90;;;17.80;99.90;;;;;;5037870;28;20169;-78
2021/08/07 02:13:35;;;;;;;1999.90;999.90;;;17.80;99.90;;;;;;5019708;28;20416;-78
2021/08/07 02:16:03;;;;;;;1999.90;999.90;;;17.80;99.90;;;;;;5037460;28;20166;-78
2021/08/07 02:18:29;;;;;;;1999.90;999.90;;;17.80;99.90;;;;;;5020084;28;20849;-78
2021/08/07 02:20:56;;;;;;;1999.90;999.90;;;17.80;99.90;;;;;;5037551;28;20764;-78
2021/08/07 02:23:22;;;;;;;1999.90;999.90;;;17.70;99.90;;;;;;5037845;28;20408;-78
2021/08/07 02:25:53;;;;;;;1999.90;999.90;;;17.70;99.90;;;;;;5037989;28;20904;-78
2021/08/07 02:28:21;;;;;;;1999.90;999.90;;;17.70;99.90;;;;;;5037981;28;20388;-79
2021/08/07 02:30:47;;;;;;;1999.90;999.90;;;17.70;99.90;;;;;;5037634;28;20404;-78
2021/08/07 02:33:13;;;;;;;1999.90;999.90;;;17.60;99.90;;;;;;5037630;28;20899;-78
2021/08/07 02:35:39;;;;;;;1999.90;999.90;;;17.60;99.90;;;;;;5037683;28;20423;-78
2021/08/07 02:38:05;;;;;;;1999.90;999.90;;;17.60;99.90;;;;;;5037116;28;20962;-78
2021/08/07 02:40:32;;;;;;;1999.90;999.90;;;17.60;99.90;;;;;;5037444;28;20432;-78
2021/08/07 02:42:58;;;;;;;1999.90;999.90;;;17.50;99.90;;;;;;5019159;28;20491;-78
2021/08/07 02:45:25;;;;;;;1999.90;999.90;;;17.60;99.90;;;;;;5037290;28;20411;-77
2021/08/07 02:47:51;;;;;;;1999.90;999.90;;;17.50;99.90;;;;;;5036943;28;20951;-78
2021/08/07 02:50:17;;;;;;;1999.90;999.90;;;17.50;99.90;;;;;;5037366;28;20407;-78
2021/08/07 02:52:45;;;;;;;1999.90;999.90;;;17.50;99.90;;;;;;5019459;28;20927;-78
2021/08/07 02:55:11;;;;;;;1999.90;999.90;;;17.60;99.90;;;;;;5019011;28;20403;-78
2021/08/07 02:57:37;;;;;;;1999.90;999.90;;;17.60;99.90;;;;;;5037121;28;20650;-77
2021/08/07 03:00:04;;;;;;;1999.90;999.90;;;17.50;99.90;;;;;;5037068;28;20510;-78
2021/08/07 03:02:30;;;;;;;1999.90;999.90;;;17.50;99.90;;;;;;5036901;28;20397;-78
2021/08/07 03:04:56;;;;;;;1999.90;999.90;;;17.40;99.90;;;;;;5036925;28;20411;-78
2021/08/07 03:07:21;;;;;;;1999.90;999.90;;;17.30;99.90;;;;;;5036751;28;20268;-78
2021/08/07 03:09:48;;;;;;;1999.90;999.90;;;17.30;99.90;;;;;;5037020;28;20229;-78
2021/08/07 03:12:15;;;;;;;1999.90;999.90;;;17.30;99.90;;;;;;5036705;28;20166;-77
2021/08/07 03:14:42;;;;;;;1999.90;999.90;;;17.40;99.90;;;;;;5036851;28;20410;-78
2021/08/07 03:17:08;;;;;;;1999.90;999.90;;;17.30;99.90;;;;;;5036187;28;20780;-79
2021/08/07 03:19:33;;;;;;;1999.90;999.90;;;17.40;99.90;;;;;;5036589;28;20459;-79
2021/08/07 03:21:59;;;;;;;1999.90;999.90;;;17.30;99.90;;;;;;5036579;28;20710;-78
2021/08/07 03:24:25;;;;;;;1999.90;999.90;;;17.40;99.90;;;;;;5036709;28;20185;-79
2021/08/07 03:26:50;;;;;;;1999.90;999.90;;;17.40;99.90;;;;;;5036379;28;20185;-78
2021/08/07 03:29:19;;;;;;;1999.90;999.90;;;17.30;99.90;;;;;;5018490;28;20165;-78
2021/08/07 03:31:45;;;;;;;1999.90;999.90;;;17.30;99.90;;;;;;5018623;28;20656;-78
2021/08/07 03:34:10;;;;;;;1999.90;999.90;;;17.30;99.90;;;;;;5036499;28;20418;-78
2021/08/07 03:36:36;;;;;;;1999.90;999.90;;;17.20;99.90;;;;;;5094529;22;20227;-80
2021/08/07 03:39:05;;;;;;;1999.90;999.90;;;17.20;99.90;;;;;;5057131;28;20606;-80
2021/08/07 03:41:31;;;;;;;1999.90;999.90;;;17.20;99.90;;;;;;5056891;28;20165;-80
2021/08/07 03:43:56;;;;;;;1999.90;999.90;;;17.20;99.90;;;;;;5056924;28;20525;-80
2021/08/07 03:46:22;;;;;;;1999.90;999.90;;;17.20;99.90;;;;;;5039315;28;20484;-80
2021/08/07 03:48:48;;;;;;;1999.90;999.90;;;17.20;99.90;;;;;;5038643;28;20176;-80
2021/08/07 03:51:13;;;;;;;1999.90;999.90;;;17.20;99.90;;;;;;5058033;28;20165;-80
2021/08/07 03:53:39;;;;;;;1999.90;999.90;;;17.20;99.90;;;;;;5056509;28;20165;-80
2021/08/07 03:56:04;;;;;;;1999.90;999.90;;;17.20;99.90;;;;;;5056763;28;20208;-80
2021/08/07 03:58:33;;;;;;;1999.90;999.90;;;17.10;99.90;;;;;;5038658;28;20308;-80
2021/08/07 04:00:59;;;;;;;1999.90;999.90;;;17.10;99.90;;;;;;5038956;28;20645;-80
2021/08/07 04:03:24;;;;;;;1999.90;999.90;;;17.10;99.90;;;;;;5038831;28;20431;-80
2021/08/07 04:05:50;;;;;;;1999.90;999.90;;;17.10;99.90;;;;;;5057124;28;20196;-80
2021/08/07 04:08:15;;;;;;;1999.90;999.90;;;17.10;99.90;;;;;;5056302;28;20172;-80
2021/08/07 04:10:44;;;;;;;1999.90;999.90;;;17.10;99.90;;;;;;5038444;28;20171;-80
2021/08/07 04:13:10;;;;;;;1999.90;999.90;;;17.10;99.90;;;;;;5056632;28;20176;-80
2021/08/07 04:15:35;;;;;;;1999.90;999.90;;;17.10;99.90;;;;;;5055764;28;20403;-80
2021/08/07 04:18:01;;;;;;;1999.90;999.90;;;17.10;99.90;;;;;;5038354;28;20264;-80
2021/08/07 04:20:27;;;;;;;1999.90;999.90;;;17.10;99.90;;;;;;5056119;28;20639;-80
2021/08/07 04:22:52;;;;;;;1999.90;999.90;;;17.20;99.90;;;;;;5038772;28;20169;-80
2021/08/07 04:25:18;;;;;;;1999.90;999.90;;;17.20;99.90;;;;;;5056800;28;20161;-80
2021/08/07 04:27:44;;;;;;;1999.90;999.90;;;17.20;99.90;;;;;;5038599;28;20189;-80
2021/08/07 04:30:10;;;;;;;1999.90;999.90;;;17.20;99.90;;;;;;5038382;28;20173;-80
2021/08/07 04:32:36;;;;;;;1999.90;999.90;;;17.10;99.90;;;;;;5056681;28;20215;-80
2021/08/07 04:35:03;;;;;;;1999.90;999.90;;;17.10;99.90;;;;;;5038145;28;20415;-80
2021/08/07 04:37:28;;;;;;;1999.90;999.90;;;17.10;99.90;;;;;;5056552;28;20853;-81
2021/08/07 04:39:54;;;;;;;1999.90;999.90;;;17.20;99.90;;;;;;5038893;28;20464;-80
2021/08/07 04:42:20;;;;;;;1999.90;999.90;;;17.20;99.90;;;;;;5039319;28;20631;-80
2021/08/07 04:44:45;;;;;;;1999.90;999.90;;;17.20;99.90;;;;;;5038310;28;20168;-80
2021/08/07 04:47:11;;;;;;;1999.90;999.90;;;17.20;99.90;;;;;;5055445;28;20196;-80
2021/08/07 04:49:37;;;;;;;1999.90;999.90;;;17.20;99.90;;;;;;5055916;28;20223;-81
2021/08/07 04:52:04;;;;;;;1999.90;999.90;;;17.20;99.90;;;;;;5056051;28;20191;-81
2021/08/07 04:54:30;;;;;;;1999.90;999.90;;;17.20;99.90;;;;;;5038086;28;20176;-80
2021/08/07 04:56:58;;;;;;;1999.90;999.90;;;17.30;99.90;;;;;;5055537;28;20435;-81
2021/08/07 04:59:27;;;;;;;1999.90;999.90;;;17.30;99.90;;;;;;5037841;28;20197;-80
2021/08/07 05:01:53;;;;;;;1999.90;999.90;;;17.30;99.90;;;;;;5039016;28;20412;-80
2021/08/07 05:04:18;;;;;;;1999.90;999.90;;;17.40;99.90;;;;;;5055608;28;20486;-80
2021/08/07 05:06:44;;;;;;;1999.90;999.90;;;17.50;99.90;;;;;;5037611;28;20192;-81
2021/08/07 05:09:10;;;;;;;1999.90;999.90;;;17.50;99.90;;;;;;5055992;28;20173;-81
2021/08/07 05:11:36;;;;;;;1999.90;999.90;;;17.50;99.90;;;;;;5056134;28;20164;-81
2021/08/07 05:14:02;;;;;;;1999.90;999.90;;;17.50;99.90;;;;;;5055488;28;20457;-81
2021/08/07 05:16:28;;;;;;;1999.90;999.90;;;17.50;99.90;;;;;;5037958;28;20477;-81
2021/08/07 05:18:54;;;;;;;1999.90;999.90;;;17.50;99.90;;;;;;5055628;28;20439;-81
2021/08/07 05:21:19;;;;;;;1999.90;999.90;;;17.50;99.90;;;;;;5055437;28;20169;-81
2021/08/07 05:23:45;;;;;;;1999.90;999.90;;;17.50;99.90;;;;;;5038123;28;20177;-81
2021/08/07 05:26:11;;;;;;;1999.90;999.90;;;17.50;99.90;;;;;;5056475;28;20181;-80
2021/08/07 05:28:36;;;;;;;1999.90;999.90;;;17.70;99.90;;;;;;5060137;28;20161;-81
2021/08/07 05:31:02;;;;;;;1999.90;999.90;;;17.60;99.90;;;;;;5059785;28;20631;-81
2021/08/07 05:33:28;;;;;;;1999.90;999.90;;;17.70;99.90;;;;;;5040610;28;20199;-79
2021/08/07 05:35:53;;;;;;;1999.90;999.90;;;17.80;99.90;;;;;;5039597;28;20184;-80
2021/08/07 05:38:19;;;;;;;1999.90;999.90;;;17.70;99.90;;;;;;5040193;28;20237;-79
2021/08/07 05:40:45;;;;;;;1999.90;999.90;;;17.80;99.90;;;;;;5057723;28;20161;-80
2021/08/07 05:43:10;;;;;;;1999.90;999.90;;;17.80;99.90;;;;;;5057636;28;20157;-80
2021/08/07 05:45:36;;;;;;;1999.90;999.90;;;17.80;99.90;;;;;;5057610;28;20169;-79
2021/08/07 05:48:02;;;;;;;1999.90;999.90;;;17.70;99.90;;;;;;5039810;28;20215;-79
2021/08/07 05:50:28;;;;;;;1999.90;999.90;;;17.80;99.90;;;;;;5040899;28;20453;-79
2021/08/07 05:52:53;;;;;;;1999.90;999.90;;;17.90;99.90;;;;;;5039812;28;20165;-79
2021/08/07 05:55:20;;;;;;;1999.90;999.90;;;18.00;99.90;;;;;;5057688;28;20501;-80
2021/08/07 05:57:45;;;;;;;1999.90;999.90;;;18.00;99.90;;;;;;5039453;28;20193;-79
2021/08/07 06:00:12;;;;;;;1999.90;999.90;;;18.00;99.90;;;;;;5040193;28;20463;-80
2021/08/07 06:02:37;;;;;;;1999.90;999.90;;;18.10;99.90;;;;;;5057830;28;20599;-80
2021/08/07 06:05:03;;;;;;;1999.90;999.90;;;18.00;99.90;;;;;;5057825;28;20395;-79
2021/08/07 06:07:29;;;;;;;1999.90;999.90;;;18.00;99.90;;;;;;5057522;28;20188;-80
2021/08/07 06:09:54;;;;;;;1999.90;999.90;;;17.90;99.90;;;;;;5057735;28;20913;-80
2021/08/07 06:12:20;;;;;;;1999.90;999.90;;;17.90;99.90;;;;;;5057687;28;20165;-79
2021/08/07 06:14:46;;;;;;;1999.90;999.90;;;18.00;99.90;;;;;;5058115;28;20145;-80
2021/08/07 06:17:12;;;;;;;1999.90;999.90;;;18.00;99.90;;;;;;5057999;28;20264;-81
2021/08/07 06:19:37;;;;;;;1999.90;999.90;;;18.00;99.90;;;;;;5057756;28;20187;-80
2021/08/07 06:22:03;;;;;;;1999.90;999.90;;;18.10;99.90;;;;;;5057806;28;20161;-79
2021/08/07 06:24:31;;;;;;;1999.90;999.90;;;18.00;99.90;;;;;;5058670;28;20148;-81
2021/08/07 06:26:56;;;;;;;1999.90;999.90;;;18.00;99.90;;;;;;5058922;28;20423;-81
2021/08/07 06:29:22;;;;;;;1999.90;999.90;;;18.10;99.90;;;;;;5059887;28;20457;-81
2021/08/07 06:31:48;;;;;;;1999.90;999.90;;;18.10;99.90;;;;;;5059796;28;20244;-81
2021/08/07 06:34:13;;;;;;;1999.90;999.90;;;18.10;99.90;;;;;;5058940;28;20276;-81
2021/08/07 06:36:39;;;;;;;1999.90;999.90;;;18.10;99.90;;;;;;5041106;28;20215;-81
2021/08/07 06:39:05;;;;;;;1999.90;999.90;;;18.20;99.90;;;;;;5057939;28;20189;-81
2021/08/07 06:41:31;;;;;;;1999.90;999.90;;;18.20;99.90;;;;;;5041265;28;20937;-81
2021/08/07 06:43:57;;;;;;;1999.90;999.90;;;18.30;99.90;;;;;;5040960;28;20500;-81
2021/08/07 06:46:23;;;;;;;1999.90;999.90;;;18.30;99.90;;;;;;5058492;28;20453;-81
2021/08/07 06:48:49;;;;;;;1999.90;999.90;;;18.30;99.90;;;;;;5041064;28;20169;-81
2021/08/07 06:51:17;;;;;;;1999.90;999.90;;;18.30;99.90;;;;;;5058477;28;20255;-81
2021/08/07 06:53:43;;;;;;;1999.90;999.90;;;18.40;99.90;;;;;;5059928;28;20169;-81
2021/08/07 06:56:08;;;;;;;1999.90;999.90;;;18.40;99.90;;;;;;5059248;28;20423;-81
2021/08/07 06:58:34;;;;;;;1999.90;999.90;;;18.50;99.90;;;;;;5058646;28;20240;-81
2021/08/07 07:01:00;;;;;;;1999.90;999.90;;;18.60;99.90;;;;;;5058960;28;20179;-81
2021/08/07 07:03:25;;;;;;;1999.90;999.90;;;18.60;99.90;;;;;;5059097;28;20215;-81
2021/08/07 07:05:51;;;;;;;1999.90;999.90;;;18.70;99.90;;;;;;5058472;28;20501;-80
2021/08/07 07:08:18;;;;;;;1999.90;999.90;;;18.80;99.90;;;;;;5058273;28;20169;-80
2021/08/07 07:10:44;;;;;;;1999.90;999.90;;;18.90;99.90;;;;;;5040112;28;20531;-81
2021/08/07 07:13:11;;;;;;;1999.90;999.90;;;19.00;99.90;;;;;;5040842;28;20495;-81
2021/08/07 07:15:36;;;;;;;1999.90;999.90;;;19.20;99.90;;;;;;5057410;28;20249;-81
2021/08/07 07:18:02;;;;;;;1999.90;999.90;;;19.20;99.90;;;;;;5057997;28;20474;-81
2021/08/07 07:20:28;;;;;;;1999.90;999.90;;;19.30;99.90;;;;;;5057709;28;20169;-81
2021/08/07 07:22:54;;;;;;;1999.90;999.90;;;19.40;99.90;;;;;;5057663;28;20903;-81
2021/08/07 07:25:19;;;;;;;1999.90;999.90;;;19.50;99.90;;;;;;5057056;28;20164;-80
2021/08/07 07:27:47;;;;;;;1999.90;999.90;;;19.60;99.90;;;;;;5057811;28;20537;-81
2021/08/07 07:30:14;;;;;;;1999.90;999.90;;;19.60;99.90;;;;;;5056892;28;20172;-80
2021/08/07 07:32:40;;;;;;;1999.90;999.90;;;19.50;99.90;;;;;;5039288;28;20412;-80
2021/08/07 07:35:07;;;;;;;1999.90;999.90;;;19.60;99.90;;;;;;5039488;28;20418;-80
2021/08/07 07:37:32;;;;;;;1999.90;999.90;;;19.60;99.90;;;;;;5057288;28;20528;-80
2021/08/07 07:39:58;;;;;;;1999.90;999.90;;;19.70;99.90;;;;;;5057848;28;20415;-80
2021/08/07 07:42:24;;;;;;;1999.90;999.90;;;19.70;99.90;;;;;;5057510;28;20161;-80
2021/08/07 07:44:50;;;;;;;1999.90;999.90;;;19.80;99.90;;;;;;5057406;28;20184;-80
2021/08/07 07:47:15;;;;;;;1999.90;999.90;;;19.80;99.90;;;;;;5057452;28;20184;-80
2021/08/07 07:49:41;;;;;;;1999.90;999.90;;;19.90;99.90;;;;;;5058139;28;20771;-80
2021/08/07 07:52:07;;;;;;;1999.90;999.90;;;20.00;99.90;;;;;;5058358;28;20694;-80
2021/08/07 07:54:32;;;;;;;1999.90;999.90;;;20.00;99.90;;;;;;5058419;28;20178;-80
2021/08/07 07:56:58;;;;;;;1999.90;999.90;;;20.20;99.90;;;;;;5061156;28;20256;-80
2021/08/07 07:59:24;;;;;;;1999.90;999.90;;;20.30;99.90;;;;;;5060945;28;20187;-80
2021/08/07 08:01:50;;;;;;;1999.90;999.90;;;20.20;99.90;;;;;;5040005;28;20217;-80
2021/08/07 08:04:16;;;;;;;1999.90;999.90;;;20.20;99.90;;;;;;5057225;28;20886;-80
2021/08/07 08:06:42;;;;;;;1999.90;999.90;;;20.30;99.90;;;;;;5057531;28;20407;-81
2021/08/07 08:09:08;;;;;;;1999.90;999.90;;;20.40;99.90;;;;;;5057136;28;20970;-80
2021/08/07 08:11:33;;;;;;;1999.90;999.90;;;20.40;99.90;;;;;;5039987;28;20655;-81
2021/08/07 08:14:00;;;;;;;1999.90;999.90;;;20.40;99.90;;;;;;5039795;28;20178;-80
2021/08/07 08:16:26;;;;;;;1999.90;999.90;;;20.30;99.90;;;;;;5038936;28;20191;-81
2021/08/07 08:18:51;;;;;;;1999.90;999.90;;;20.40;99.90;;;;;;5056270;28;20447;-81
2021/08/07 08:21:19;;;;;;;1999.90;999.90;;;20.60;99.90;;;;;;5057073;28;20883;-80
2021/08/07 08:23:46;;;;;;;1999.90;999.90;;;20.60;99.90;;;;;;5038490;28;20206;-80
2021/08/07 08:26:13;;;;;;;1999.90;999.90;;;20.80;99.90;;;;;;5056488;28;20423;-80
2021/08/07 08:28:38;;;;;;;1999.90;999.90;;;21.00;99.90;;;;;;5056659;28;20934;-80
2021/08/07 08:31:04;;;;;;;1999.90;999.90;;;21.00;99.90;;;;;;5056507;28;20403;-81
2021/08/07 08:33:30;;;;;;;1999.90;999.90;;;21.10;99.90;;;;;;5056463;28;20572;-81
2021/08/07 08:35:55;;;;;;;1999.90;999.90;;;21.00;99.90;;;;;;5038261;28;20188;-81
2021/08/07 08:38:21;;;;;;;1999.90;999.90;;;21.00;99.90;;;;;;5056222;28;20180;-81
2021/08/07 08:40:47;;;;;;;1999.90;999.90;;;20.90;99.90;;;;;;5056626;28;20197;-80
2021/08/07 08:43:13;;;;;;;1999.90;999.90;;;21.00;99.90;;;;;;5056504;28;20163;-80
2021/08/07 08:45:39;;;;;;;1999.90;999.90;;;21.20;99.90;;;;;;5056161;28;20165;-81
2021/08/07 08:48:06;;;;;;;1999.90;999.90;;;21.40;99.90;;;;;;5038974;28;20431;-80
2021/08/07 08:50:31;;;;;;;1999.90;999.90;;;21.30;99.90;;;;;;5039123;28;20641;-80
2021/08/07 08:52:59;;;;;;;1999.90;999.90;;;21.40;99.90;;;;;;5056072;28;20407;-80
2021/08/07 08:55:24;;;;;;;1999.90;999.90;;;21.30;99.90;;;;;;5056142;28;20167;-80
2021/08/07 08:57:50;;;;;;;1999.90;999.90;;;21.40;99.90;;;;;;5056422;28;20443;-80
2021/08/07 09:00:16;;;;;;;1999.90;999.90;;;21.50;99.90;;;;;;5056242;28;20217;-80
2021/08/07 09:02:43;;;;;;;1999.90;999.90;;;21.40;99.90;;;;;;5056207;28;20395;-81
2021/08/07 09:05:11;;;;;;;1999.90;999.90;;;21.40;99.90;;;;;;5038192;28;20696;-81
2021/08/07 09:07:37;;;;;;;1999.90;999.90;;;21.40;99.90;;;;;;5055762;28;20783;-80
2021/08/07 09:10:04;;;;;;;1999.90;999.90;;;21.50;99.90;;;;;;5038231;28;20408;-80
2021/08/07 09:12:40;;;;;;;1999.90;999.90;;;21.40;99.90;;;;;;5056644;28;20636;-80
2021/08/07 09:15:23;;;;;;;1999.90;999.90;;;21.30;99.90;;;;;;5056015;28;20454;-81
2021/08/07 09:17:49;;;;;;;1999.90;999.90;;;21.40;99.90;;;;;;5055757;28;20447;-80
2021/08/07 09:20:26;;;;;;;1999.90;999.90;;;21.40;99.90;;;;;;5055400;28;20556;-80
2021/08/07 09:22:53;;;;;;;1999.90;999.90;;;21.40;99.90;;;;;;5055961;28;20390;-81
2021/08/07 09:25:23;;;;;;;1999.90;999.90;;;21.50;99.90;;;;;;5055896;28;20408;-80
2021/08/07 09:27:50;;;;;;;1999.90;999.90;;;21.70;99.90;;;;;;5038206;28;20427;-81
2021/08/07 09:30:19;;;;;;;1999.90;999.90;;;21.90;99.90;;;;;;5037931;28;20407;-80
2021/08/07 09:32:53;;;;;;;1999.90;999.90;;;22.00;99.90;;;;;;5037759;28;20407;-80
2021/08/07 09:35:23;;;;;;;1999.90;999.90;;;21.90;99.90;;;;;;5037815;28;20514;-80
2021/08/07 09:38:06;;;;;;;1999.90;999.90;;;21.90;99.90;;;;;;5140240;22;20515;-80
2021/08/07 09:40:46;;;;;;;1999.90;999.90;;;22.00;99.90;;;;;;5055873;28;20403;-80
2021/08/07 09:43:14;;;;;;;1999.90;999.90;;;22.00;99.90;;;;;;5055904;28;20925;-81
2021/08/07 09:45:40;;;;;;;1999.90;999.90;;;21.90;99.90;;;;;;5055497;28;20798;-81
2021/08/07 09:48:12;;;;;;;1999.90;999.90;;;22.00;99.90;;;;;;5037752;28;20435;-81
2021/08/07 09:50:39;;;;;;;1999.90;999.90;;;22.20;99.90;;;;;;5055539;28;20378;-80
2021/08/07 09:53:16;;;;;;;1999.90;999.90;;;22.30;99.90;;;;;;5054960;28;20921;-80
2021/08/07 09:56:06;;;;;;;1999.90;999.90;;;22.30;99.90;;;;;;5055721;28;20388;-81
2021/08/07 09:58:33;;;;;;;1999.90;999.90;;;22.20;99.90;;;;;;5055308;28;20438;-81
2021/08/07 10:00:59;;;;;;;1999.90;999.90;;;22.10;99.90;;;;;;5055405;28;20400;-81
2021/08/07 10:03:29;;;;;;;1999.90;999.90;;;22.10;99.90;;;;;;5055680;28;20395;-80
2021/08/07 10:05:56;;;;;;;1999.90;999.90;;;22.10;99.90;;;;;;5055399;28;20498;-81
2021/08/07 10:08:22;;;;;;;1999.90;999.90;;;22.10;99.90;;;;;;5055238;28;20396;-80
2021/08/07 10:10:50;;;;;;;1999.90;999.90;;;22.20;99.90;;;;;;5054967;28;20399;-80
2021/08/07 10:13:17;;;;;;;1999.90;999.90;;;22.30;99.90;;;;;;5037786;28;20403;-80
2021/08/07 10:15:44;;;;;;;1999.90;999.90;;;22.20;99.90;;;;;;5058786;28;20769;-81
2021/08/07 10:18:10;;;;;;;1999.90;999.90;;;22.20;99.90;;;;;;5058849;28;20449;-80
2021/08/07 10:20:38;;;;;;;1999.90;999.90;;;22.30;99.90;;;;;;5058899;28;20418;-80
2021/08/07 10:23:05;;;;;;;1999.90;999.90;;;22.40;99.90;;;;;;5058550;28;20409;-80
2021/08/07 10:25:32;;;;;;;1999.90;999.90;;;22.40;99.90;;;;;;5058152;28;20520;-80
2021/08/07 10:28:01;;;;;;;1999.90;999.90;;;22.30;99.40;;;;;;5057844;28;20427;-80
2021/08/07 10:30:30;;;;;;;1999.90;999.90;;;22.20;99.90;;;;;;5040479;28;20414;-80
2021/08/07 10:32:57;;;;;;;1999.90;999.90;;;22.20;99.90;;;;;;5058935;28;20403;-80
2021/08/07 10:35:28;;;;;;;1999.90;999.90;;;22.00;99.90;;;;;;5058069;28;20468;-80
2021/08/07 10:37:56;;;;;;;1999.90;999.90;;;21.80;99.90;;;;;;5058336;28;20466;-80
2021/08/07 10:40:22;;;;;;;1999.90;999.90;;;21.70;99.90;;;;;;5058555;28;20408;-80
2021/08/07 10:42:50;;;;;;;1999.90;999.90;;;21.60;99.90;;;;;;5058541;28;20418;-81
2021/08/07 10:45:17;;;;;;;1999.90;999.90;;;21.70;99.90;;;;;;5040830;28;20813;-81
2021/08/07 10:47:45;;;;;;;1999.90;999.90;;;21.70;99.90;;;;;;5040422;28;20450;-81
2021/08/07 10:50:22;;;;;;;1999.90;999.90;;;21.60;99.90;;;;;;5057943;28;20401;-81
2021/08/07 10:52:48;;;;;;;1999.90;999.90;;;21.40;99.90;;;;;;5040466;28;20411;-81
2021/08/07 10:55:50;;;;;;;1999.90;999.90;;;21.20;99.90;;;;;;5062105;28;20401;-81
2021/08/07 10:58:41;;;;;;;1999.90;999.90;;;21.20;99.90;;;;;;5055894;28;20192;-80
2021/08/07 11:01:22;;;;;;;1999.90;999.90;;;20.90;99.90;;;;;;5055361;28;20478;-79
2021/08/07 11:03:49;;;;;;;1999.90;999.90;;;20.70;99.90;;;;;;5055459;28;20473;-79
2021/08/07 11:06:15;;;;;;;1999.90;999.90;;;20.80;99.90;;;;;;5037550;28;20421;-79
2021/08/07 11:08:41;;;;;;;1999.90;999.90;;;21.00;99.90;;;;;;5055773;28;20411;-79
2021/08/07 11:11:29;;;;;;;1999.90;999.90;;;21.30;99.90;;;;;;5037489;28;20410;-79
2021/08/07 11:14:25;;;;;;;1999.90;999.90;;;21.50;99.90;;;;;;5056920;28;20410;-81
2021/08/07 11:17:06;;;;;;;1999.90;999.90;;;21.70;99.90;;;;;;5039353;28;20434;-81
2021/08/07 11:19:55;;;;;;;1999.90;999.90;;;22.00;99.90;;;;;;5040137;28;20453;-81
2021/08/07 11:22:44;;;;;;;1999.90;999.90;;;22.40;99.90;;;;;;5040824;28;20396;-81
2021/08/07 11:25:11;;;;;;;1999.90;999.90;;;22.60;99.90;;;;;;5039780;28;20449;-81
2021/08/07 11:30:22;;;;;;;1999.90;999.90;;;22.90;99.90;;;;;;5058158;28;20454;-81
2021/08/07 11:32:56;;;;;;;1999.90;999.90;;;22.90;99.90;;;;;;5058028;28;20495;-81
2021/08/07 11:35:34;;;;;;;1999.90;999.90;;;22.90;99.90;;;;;;5057485;28;20459;-81
2021/08/07 11:38:09;;;;;;;1999.90;999.90;;;23.00;99.00;;;;;;5039705;28;20540;-81
2021/08/07 11:40:47;;;;;;;1999.90;999.90;;;23.00;96.70;;;;;;5057768;28;20403;-81
2021/08/07 11:43:15;;;;;;;1999.90;999.90;;;22.90;96.50;;;;;;5057249;28;20403;-80
2021/08/07 11:45:44;;;;;;;1999.90;999.90;;;23.00;95.80;;;;;;5057396;28;20395;-81
2021/08/07 11:48:10;;;;;;;1999.90;999.90;;;23.10;92.90;;;;;;5057156;28;20410;-81
2021/08/07 11:50:42;;;;;;;1999.90;999.90;;;23.40;89.60;;;;;;5039619;28;20795;-81
2021/08/07 11:53:15;;;;;;;1999.90;999.90;;;23.80;92.50;;;;;;5057232;28;20612;-80
2021/08/07 11:55:42;;;;;;;1999.90;999.90;;;24.10;77.80;;;;;;5039076;28;20895;-78
2021/08/07 11:58:10;;;;;;;1999.90;999.90;;;24.50;79.40;;;;;;5055942;28;20823;-80
2021/08/07 12:00:38;;;;;;;1999.90;999.90;;;24.90;72.30;;;;;;5056785;28;20411;-78
2021/08/07 12:03:07;;;;;;;1999.90;999.90;;;25.30;51.20;;;;;;5021584;28;20601;-79
2021/08/07 12:05:37;;;;;;;1999.90;999.90;;;25.50;59.10;;;;;;5056139;28;20470;-79